« Back
NWS Peachtree City, Ga » Text Product » CSG Terminal Aerodrome Forecast


Printer-friendly Version
Current Version              Previous Versions:   1  2  3  4  5  6  7  8  9  

Terminal Aerodrome Forecast

049
FTUS42 KFFC 240500
TAFCSG
TAF
KCSG 240538Z 2406/2506 00000KT P6SM FEW035
     FM240900 23003KT 6SM BR SCT025
     FM241500 24006KT P6SM BKN035
     FM241800 25008G16KT P6SM VCSH BKN045 PROB30 2420/2502 5SM TSRA
      BR BKN025CB
     FM250200 28006KT P6SM VCSH BKN050
     FM250500 29005KT P6SM SCT050 BKN100=



USA.gov is the U.S. government's official web portal to all federal, state and local government web resources and services.